sensor_id;sensor_type;location;lat;lon;timestamp;temperature;humidity
42715;DHT22;28351;51.480;5.706;2023-02-15T00:01:51;2.00;99.90
42715;DHT22;28351;51.480;5.706;2023-02-15T00:04:20;2.00;99.90
42715;DHT22;28351;51.480;5.706;2023-02-15T00:06:46;1.90;99.90
42715;DHT22;28351;51.480;5.706;2023-02-15T00:09:15;1.90;99.90
42715;DHT22;28351;51.480;5.706;2023-02-15T00:11:41;1.90;99.90
42715;DHT22;28351;51.480;5.706;2023-02-15T00:16:42;1.90;99.90
42715;DHT22;28351;51.480;5.706;2023-02-15T00:19:08;1.90;99.90
42715;DHT22;28351;51.480;5.706;2023-02-15T00:21:35;1.90;99.90
42715;DHT22;28351;51.480;5.706;2023-02-15T00:24:03;1.80;99.90
42715;DHT22;28351;51.480;5.706;2023-02-15T00:26:30;1.80;99.90
42715;DHT22;28351;51.480;5.706;2023-02-15T00:28:56;1.80;99.90
42715;DHT22;28351;51.480;5.706;2023-02-15T00:31:23;1.80;99.90
42715;DHT22;28351;51.480;5.706;2023-02-15T00:33:49;1.80;99.90
42715;DHT22;28351;51.480;5.706;2023-02-15T00:36:15;1.80;99.90
42715;DHT22;28351;51.480;5.706;2023-02-15T00:38:40;1.70;99.90
42715;DHT22;28351;51.480;5.706;2023-02-15T00:41:07;1.70;99.90
42715;DHT22;28351;51.480;5.706;2023-02-15T00:43:34;1.60;99.90
42715;DHT22;28351;51.480;5.706;2023-02-15T00:46:00;1.60;99.90
42715;DHT22;28351;51.480;5.706;2023-02-15T00:48:26;1.60;99.90
42715;DHT22;28351;51.480;5.706;2023-02-15T00:50:53;1.50;99.90
42715;DHT22;28351;51.480;5.706;2023-02-15T00:53:20;1.50;99.90
42715;DHT22;28351;51.480;5.706;2023-02-15T00:55:46;1.50;99.90
42715;DHT22;28351;51.480;5.706;2023-02-15T00:58:12;1.50;99.90
42715;DHT22;28351;51.480;5.706;2023-02-15T01:00:38;1.50;99.90
42715;DHT22;28351;51.480;5.706;2023-02-15T01:03:05;1.50;99.90
42715;DHT22;28351;51.480;5.706;2023-02-15T01:05:31;1.40;99.90
42715;DHT22;28351;51.480;5.706;2023-02-15T01:07:58;1.40;99.90
42715;DHT22;28351;51.480;5.706;2023-02-15T01:10:24;1.40;99.90
42715;DHT22;28351;51.480;5.706;2023-02-15T01:12:53;1.40;99.90
42715;DHT22;28351;51.480;5.706;2023-02-15T01:15:19;1.30;99.90
42715;DHT22;28351;51.480;5.706;2023-02-15T01:17:45;1.30;99.90
42715;DHT22;28351;51.480;5.706;2023-02-15T01:20:17;1.30;99.90
42715;DHT22;28351;51.480;5.706;2023-02-15T01:22:43;1.30;99.90
42715;DHT22;28351;51.480;5.706;2023-02-15T01:25:09;1.30;99.90
42715;DHT22;28351;51.480;5.706;2023-02-15T01:27:34;1.20;99.90
42715;DHT22;28351;51.480;5.706;2023-02-15T01:30:00;1.20;99.90
42715;DHT22;28351;51.480;5.706;2023-02-15T01:32:26;1.20;99.90
42715;DHT22;28351;51.480;5.706;2023-02-15T01:34:52;1.10;99.90
42715;DHT22;28351;51.480;5.706;2023-02-15T01:37:18;1.10;99.90
42715;DHT22;28351;51.480;5.706;2023-02-15T01:39:44;1.10;99.90
42715;DHT22;28351;51.480;5.706;2023-02-15T01:42:11;1.10;99.90
42715;DHT22;28351;51.480;5.706;2023-02-15T01:52:31;1.00;99.90
42715;DHT22;28351;51.480;5.706;2023-02-15T01:54:57;1.00;99.90
42715;DHT22;28351;51.480;5.706;2023-02-15T01:57:25;1.00;99.90
42715;DHT22;28351;51.480;5.706;2023-02-15T01:59:56;1.00;99.90
42715;DHT22;28351;51.480;5.706;2023-02-15T02:02:23;1.00;99.90
42715;DHT22;28351;51.480;5.706;2023-02-15T02:04:54;1.00;99.90
42715;DHT22;28351;51.480;5.706;2023-02-15T02:07:26;0.90;99.90
42715;DHT22;28351;51.480;5.706;2023-02-15T02:09:52;0.90;99.90
42715;DHT22;28351;51.480;5.706;2023-02-15T02:12:18;0.90;99.90
42715;DHT22;28351;51.480;5.706;2023-02-15T02:14:46;0.90;99.90
42715;DHT22;28351;51.480;5.706;2023-02-15T02:17:22;0.90;99.90
42715;DHT22;28351;51.480;5.706;2023-02-15T02:22:45;0.80;99.90
42715;DHT22;28351;51.480;5.706;2023-02-15T02:42:49;0.60;99.90
42715;DHT22;28351;51.480;5.706;2023-02-15T02:47:59;0.70;99.90
42715;DHT22;28351;51.480;5.706;2023-02-15T02:50:27;0.70;99.90
42715;DHT22;28351;51.480;5.706;2023-02-15T02:52:55;0.60;99.90
42715;DHT22;28351;51.480;5.706;2023-02-15T02:55:29;0.60;99.90
42715;DHT22;28351;51.480;5.706;2023-02-15T02:58:08;0.60;99.90
42715;DHT22;28351;51.480;5.706;2023-02-15T03:00:51;0.60;99.90
42715;DHT22;28351;51.480;5.706;2023-02-15T03:03:27;0.50;99.90
42715;DHT22;28351;51.480;5.706;2023-02-15T03:05:59;0.50;99.90
42715;DHT22;28351;51.480;5.706;2023-02-15T03:08:30;0.50;99.90
42715;DHT22;28351;51.480;5.706;2023-02-15T03:10:59;0.40;99.90
42715;DHT22;28351;51.480;5.706;2023-02-15T03:13:26;0.40;99.90
42715;DHT22;28351;51.480;5.706;2023-02-15T03:15:52;0.40;99.90
42715;DHT22;28351;51.480;5.706;2023-02-15T03:18:43;0.40;99.90
42715;DHT22;28351;51.480;5.706;2023-02-15T03:21:15;0.40;99.90
42715;DHT22;28351;51.480;5.706;2023-02-15T03:23:51;0.40;99.90
42715;DHT22;28351;51.480;5.706;2023-02-15T03:26:18;0.40;99.90
42715;DHT22;28351;51.480;5.706;2023-02-15T03:28:48;0.30;99.90
42715;DHT22;28351;51.480;5.706;2023-02-15T03:31:16;0.30;99.90
42715;DHT22;28351;51.480;5.706;2023-02-15T03:33:59;0.30;99.90
42715;DHT22;28351;51.480;5.706;2023-02-15T03:39:32;0.30;99.90
42715;DHT22;28351;51.480;5.706;2023-02-15T03:42:09;0.30;99.90
42715;DHT22;28351;51.480;5.706;2023-02-15T03:44:55;0.30;99.90
42715;DHT22;28351;51.480;5.706;2023-02-15T03:47:30;0.20;99.90
42715;DHT22;28351;51.480;5.706;2023-02-15T03:50:10;0.30;99.90
42715;DHT22;28351;51.480;5.706;2023-02-15T03:52:57;0.30;99.90
42715;DHT22;28351;51.480;5.706;2023-02-15T03:55:24;0.30;99.90
42715;DHT22;28351;51.480;5.706;2023-02-15T03:57:50;0.30;99.90
42715;DHT22;28351;51.480;5.706;2023-02-15T04:00:37;0.30;99.90
42715;DHT22;28351;51.480;5.706;2023-02-15T04:03:33;0.20;99.90
42715;DHT22;28351;51.480;5.706;2023-02-15T04:06:02;0.20;99.90
42715;DHT22;28351;51.480;5.706;2023-02-15T04:08:28;0.20;99.90
42715;DHT22;28351;51.480;5.706;2023-02-15T04:11:12;0.20;99.90
42715;DHT22;28351;51.480;5.706;2023-02-15T04:13:38;0.10;99.90
42715;DHT22;28351;51.480;5.706;2023-02-15T04:16:03;0.20;99.90
42715;DHT22;28351;51.480;5.706;2023-02-15T04:18:35;0.20;99.90
42715;DHT22;28351;51.480;5.706;2023-02-15T04:21:21;0.20;99.90
42715;DHT22;28351;51.480;5.706;2023-02-15T04:24:05;0.20;99.90
42715;DHT22;28351;51.480;5.706;2023-02-15T04:26:50;0.20;99.90
42715;DHT22;28351;51.480;5.706;2023-02-15T04:29:22;0.20;99.90
42715;DHT22;28351;51.480;5.706;2023-02-15T04:31:48;0.20;99.90
42715;DHT22;28351;51.480;5.706;2023-02-15T04:34:14;0.20;99.90
42715;DHT22;28351;51.480;5.706;2023-02-15T04:36:40;0.10;99.90
42715;DHT22;28351;51.480;5.706;2023-02-15T04:39:07;0.10;99.90
42715;DHT22;28351;51.480;5.706;2023-02-15T04:41:33;0.10;99.90
42715;DHT22;28351;51.480;5.706;2023-02-15T04:43:59;0.10;99.90
42715;DHT22;28351;51.480;5.706;2023-02-15T04:46:26;0.10;99.90
42715;DHT22;28351;51.480;5.706;2023-02-15T04:48:52;0.10;99.90
42715;DHT22;28351;51.480;5.706;2023-02-15T04:51:18;0.10;99.90
42715;DHT22;28351;51.480;5.706;2023-02-15T04:53:45;0.10;99.90
42715;DHT22;28351;51.480;5.706;2023-02-15T04:56:10;0.10;99.90
42715;DHT22;28351;51.480;5.706;2023-02-15T04:58:36;0.10;99.90
42715;DHT22;28351;51.480;5.706;2023-02-15T05:01:02;0.10;99.90
42715;DHT22;28351;51.480;5.706;2023-02-15T05:03:28;0.00;99.90
42715;DHT22;28351;51.480;5.706;2023-02-15T05:05:54;0.00;99.90
42715;DHT22;28351;51.480;5.706;2023-02-15T05:08:19;0.00;99.90
42715;DHT22;28351;51.480;5.706;2023-02-15T05:10:47;0.00;99.90
42715;DHT22;28351;51.480;5.706;2023-02-15T05:13:13;0.00;99.90
42715;DHT22;28351;51.480;5.706;2023-02-15T05:15:39;-0.10;99.90
42715;DHT22;28351;51.480;5.706;2023-02-15T05:18:04;-0.10;99.90
42715;DHT22;28351;51.480;5.706;2023-02-15T05:20:32;-0.10;99.90
42715;DHT22;28351;51.480;5.706;2023-02-15T05:22:57;-0.10;99.90
42715;DHT22;28351;51.480;5.706;2023-02-15T05:25:23;-0.10;99.90
42715;DHT22;28351;51.480;5.706;2023-02-15T05:28:11;-0.10;99.90
42715;DHT22;28351;51.480;5.706;2023-02-15T05:31:02;-0.10;99.90
42715;DHT22;28351;51.480;5.706;2023-02-15T05:33:28;-0.10;99.90
42715;DHT22;28351;51.480;5.706;2023-02-15T05:35:53;-0.10;99.90
42715;DHT22;28351;51.480;5.706;2023-02-15T05:38:19;-0.10;99.90
42715;DHT22;28351;51.480;5.706;2023-02-15T05:40:44;-0.10;99.90
42715;DHT22;28351;51.480;5.706;2023-02-15T05:43:10;-0.10;99.90
42715;DHT22;28351;51.480;5.706;2023-02-15T05:45:35;-0.10;99.90
42715;DHT22;28351;51.480;5.706;2023-02-15T05:48:01;-0.20;99.90
42715;DHT22;28351;51.480;5.706;2023-02-15T05:50:26;-0.20;99.90
42715;DHT22;28351;51.480;5.706;2023-02-15T05:52:52;-0.20;99.90
42715;DHT22;28351;51.480;5.706;2023-02-15T05:55:18;-0.20;99.90
42715;DHT22;28351;51.480;5.706;2023-02-15T05:57:44;-0.20;99.90
42715;DHT22;28351;51.480;5.706;2023-02-15T06:00:10;-0.20;99.90
42715;DHT22;28351;51.480;5.706;2023-02-15T06:02:37;-0.20;99.90
42715;DHT22;28351;51.480;5.706;2023-02-15T06:05:04;-0.20;99.90
42715;DHT22;28351;51.480;5.706;2023-02-15T06:07:30;-0.20;99.90
42715;DHT22;28351;51.480;5.706;2023-02-15T06:09:55;-0.20;99.90
42715;DHT22;28351;51.480;5.706;2023-02-15T06:12:21;-0.20;99.90
42715;DHT22;28351;51.480;5.706;2023-02-15T06:14:47;-0.20;99.90
42715;DHT22;28351;51.480;5.706;2023-02-15T06:17:12;-0.20;99.90
42715;DHT22;28351;51.480;5.706;2023-02-15T06:19:40;-0.20;99.90
42715;DHT22;28351;51.480;5.706;2023-02-15T06:22:09;-0.30;99.90
42715;DHT22;28351;51.480;5.706;2023-02-15T06:24:34;-0.30;99.90
42715;DHT22;28351;51.480;5.706;2023-02-15T06:27:00;-0.30;99.90
42715;DHT22;28351;51.480;5.706;2023-02-15T06:29:26;-0.30;99.90
42715;DHT22;28351;51.480;5.706;2023-02-15T06:31:51;-0.30;99.90
42715;DHT22;28351;51.480;5.706;2023-02-15T06:34:17;-0.30;99.90
42715;DHT22;28351;51.480;5.706;2023-02-15T06:36:42;-0.30;99.90
42715;DHT22;28351;51.480;5.706;2023-02-15T06:39:08;-0.30;99.90
42715;DHT22;28351;51.480;5.706;2023-02-15T06:41:33;-0.30;99.90
42715;DHT22;28351;51.480;5.706;2023-02-15T06:43:59;-0.40;99.90
42715;DHT22;28351;51.480;5.706;2023-02-15T06:46:25;-0.40;99.90
42715;DHT22;28351;51.480;5.706;2023-02-15T06:48:50;-0.40;99.90
42715;DHT22;28351;51.480;5.706;2023-02-15T06:51:16;-0.40;99.90
42715;DHT22;28351;51.480;5.706;2023-02-15T06:53:42;-0.40;99.90
42715;DHT22;28351;51.480;5.706;2023-02-15T06:56:09;-0.40;99.90
42715;DHT22;28351;51.480;5.706;2023-02-15T06:58:36;-0.40;99.90
42715;DHT22;28351;51.480;5.706;2023-02-15T07:01:02;-0.40;99.90
42715;DHT22;28351;51.480;5.706;2023-02-15T07:03:28;-0.40;99.90
42715;DHT22;28351;51.480;5.706;2023-02-15T07:05:58;-0.40;99.90
42715;DHT22;28351;51.480;5.706;2023-02-15T07:08:25;-0.40;99.90
42715;DHT22;28351;51.480;5.706;2023-02-15T07:10:55;-0.30;99.90
42715;DHT22;28351;51.480;5.706;2023-02-15T07:13:41;-0.30;99.90
42715;DHT22;28351;51.480;5.706;2023-02-15T07:16:08;-0.30;99.90
42715;DHT22;28351;51.480;5.706;2023-02-15T07:18:34;-0.30;99.90
42715;DHT22;28351;51.480;5.706;2023-02-15T07:20:59;-0.20;99.90
42715;DHT22;28351;51.480;5.706;2023-02-15T07:23:25;-0.20;99.90
42715;DHT22;28351;51.480;5.706;2023-02-15T07:25:59;-0.10;99.90
42715;DHT22;28351;51.480;5.706;2023-02-15T07:28:25;-0.10;99.90
42715;DHT22;28351;51.480;5.706;2023-02-15T07:30:51;-0.10;99.90
42715;DHT22;28351;51.480;5.706;2023-02-15T07:33:17;0.00;99.90
42715;DHT22;28351;51.480;5.706;2023-02-15T07:35:59;0.00;99.90
42715;DHT22;28351;51.480;5.706;2023-02-15T07:38:27;0.10;99.90
42715;DHT22;28351;51.480;5.706;2023-02-15T07:41:04;0.10;99.90
42715;DHT22;28351;51.480;5.706;2023-02-15T07:43:32;0.10;99.90
42715;DHT22;28351;51.480;5.706;2023-02-15T07:46:02;0.20;99.90
42715;DHT22;28351;51.480;5.706;2023-02-15T07:48:28;0.30;99.90
42715;DHT22;28351;51.480;5.706;2023-02-15T07:50:54;0.30;99.90
42715;DHT22;28351;51.480;5.706;2023-02-15T07:53:19;0.50;99.90
42715;DHT22;28351;51.480;5.706;2023-02-15T07:55:45;0.60;99.90
42715;DHT22;28351;51.480;5.706;2023-02-15T07:58:10;0.80;99.90
42715;DHT22;28351;51.480;5.706;2023-02-15T08:00:36;0.80;99.90
42715;DHT22;28351;51.480;5.706;2023-02-15T08:03:25;0.90;99.90
42715;DHT22;28351;51.480;5.706;2023-02-15T08:05:59;1.00;99.90
42715;DHT22;28351;51.480;5.706;2023-02-15T08:08:26;1.10;99.90
42715;DHT22;28351;51.480;5.706;2023-02-15T08:11:03;1.10;99.90
42715;DHT22;28351;51.480;5.706;2023-02-15T08:13:49;1.20;99.90
42715;DHT22;28351;51.480;5.706;2023-02-15T08:16:41;1.30;99.90
42715;DHT22;28351;51.480;5.706;2023-02-15T08:19:17;1.40;99.90
42715;DHT22;28351;51.480;5.706;2023-02-15T08:21:48;1.60;99.90
42715;DHT22;28351;51.480;5.706;2023-02-15T08:24:17;1.60;99.90
42715;DHT22;28351;51.480;5.706;2023-02-15T08:26:44;1.70;99.90
42715;DHT22;28351;51.480;5.706;2023-02-15T08:29:14;1.80;99.90
42715;DHT22;28351;51.480;5.706;2023-02-15T08:31:41;1.90;99.90
42715;DHT22;28351;51.480;5.706;2023-02-15T08:34:09;2.00;99.90
42715;DHT22;28351;51.480;5.706;2023-02-15T08:36:35;2.10;99.90
42715;DHT22;28351;51.480;5.706;2023-02-15T08:39:03;2.10;99.90
42715;DHT22;28351;51.480;5.706;2023-02-15T08:41:31;2.20;99.90
42715;DHT22;28351;51.480;5.706;2023-02-15T08:44:00;2.30;99.90
42715;DHT22;28351;51.480;5.706;2023-02-15T08:46:29;2.50;99.90
42715;DHT22;28351;51.480;5.706;2023-02-15T08:48:55;2.60;99.90
42715;DHT22;28351;51.480;5.706;2023-02-15T08:51:26;2.80;99.90
42715;DHT22;28351;51.480;5.706;2023-02-15T08:53:54;2.90;99.90
42715;DHT22;28351;51.480;5.706;2023-02-15T08:56:23;3.00;99.90
42715;DHT22;28351;51.480;5.706;2023-02-15T08:58:49;3.20;99.90
42715;DHT22;28351;51.480;5.706;2023-02-15T09:01:21;3.30;99.90
42715;DHT22;28351;51.480;5.706;2023-02-15T09:03:49;3.40;99.90
42715;DHT22;28351;51.480;5.706;2023-02-15T09:06:19;3.50;99.90
42715;DHT22;28351;51.480;5.706;2023-02-15T09:08:44;3.60;99.90
42715;DHT22;28351;51.480;5.706;2023-02-15T09:11:16;3.70;99.90
42715;DHT22;28351;51.480;5.706;2023-02-15T09:13:49;3.90;99.90
42715;DHT22;28351;51.480;5.706;2023-02-15T09:16:15;3.90;99.90
42715;DHT22;28351;51.480;5.706;2023-02-15T09:18:42;4.00;99.90
42715;DHT22;28351;51.480;5.706;2023-02-15T09:21:16;4.10;99.90
42715;DHT22;28351;51.480;5.706;2023-02-15T09:23:44;4.20;99.90
42715;DHT22;28351;51.480;5.706;2023-02-15T09:26:13;4.30;99.90
42715;DHT22;28351;51.480;5.706;2023-02-15T09:28:39;4.40;99.90
42715;DHT22;28351;51.480;5.706;2023-02-15T09:31:20;4.50;99.90
42715;DHT22;28351;51.480;5.706;2023-02-15T09:33:47;4.60;99.90
42715;DHT22;28351;51.480;5.706;2023-02-15T09:36:36;4.70;99.90
42715;DHT22;28351;51.480;5.706;2023-02-15T09:39:11;4.80;99.90
42715;DHT22;28351;51.480;5.706;2023-02-15T09:49:43;5.50;99.90
42715;DHT22;28351;51.480;5.706;2023-02-15T09:52:22;5.60;99.90
42715;DHT22;28351;51.480;5.706;2023-02-15T09:55:14;5.70;99.90
42715;DHT22;28351;51.480;5.706;2023-02-15T10:12:32;6.90;99.90
42715;DHT22;28351;51.480;5.706;2023-02-15T10:26:18;7.40;99.90
42715;DHT22;28351;51.480;5.706;2023-02-15T10:31:48;7.70;99.90
42715;DHT22;28351;51.480;5.706;2023-02-15T10:34:22;7.80;99.90
42715;DHT22;28351;51.480;5.706;2023-02-15T10:40:14;8.00;99.90
42715;DHT22;28351;51.480;5.706;2023-02-15T10:50:57;8.30;99.90
42715;DHT22;28351;51.480;5.706;2023-02-15T10:59:25;8.80;99.90
42715;DHT22;28351;51.480;5.706;2023-02-15T11:02:22;9.00;99.90
42715;DHT22;28351;51.480;5.706;2023-02-15T11:04:55;9.30;99.90
42715;DHT22;28351;51.480;5.706;2023-02-15T11:07:24;9.50;99.90
42715;DHT22;28351;51.480;5.706;2023-02-15T11:12:43;9.80;99.90
42715;DHT22;28351;51.480;5.706;2023-02-15T11:15:20;10.10;99.90
42715;DHT22;28351;51.480;5.706;2023-02-15T11:17:56;10.30;99.90
42715;DHT22;28351;51.480;5.706;2023-02-15T11:23:24;10.80;99.90
42715;DHT22;28351;51.480;5.706;2023-02-15T11:26:04;11.00;99.90
42715;DHT22;28351;51.480;5.706;2023-02-15T11:28:37;11.20;99.90
42715;DHT22;28351;51.480;5.706;2023-02-15T11:31:17;11.30;99.90
42715;DHT22;28351;51.480;5.706;2023-02-15T11:33:52;11.50;99.90
42715;DHT22;28351;51.480;5.706;2023-02-15T11:36:22;11.90;99.90
42715;DHT22;28351;51.480;5.706;2023-02-15T11:38:56;12.10;99.90
42715;DHT22;28351;51.480;5.706;2023-02-15T11:41:31;12.30;99.90
42715;DHT22;28351;51.480;5.706;2023-02-15T11:46:28;12.60;99.90
42715;DHT22;28351;51.480;5.706;2023-02-15T11:48:54;13.10;99.90
42715;DHT22;28351;51.480;5.706;2023-02-15T11:51:22;13.70;99.90
42715;DHT22;28351;51.480;5.706;2023-02-15T11:53:48;14.40;99.90
42715;DHT22;28351;51.480;5.706;2023-02-15T11:56:20;15.80;99.90
42715;DHT22;28351;51.480;5.706;2023-02-15T11:59:12;16.70;98.80
42715;DHT22;28351;51.480;5.706;2023-02-15T12:01:46;17.50;97.00
42715;DHT22;28351;51.480;5.706;2023-02-15T12:04:25;17.90;97.00
42715;DHT22;28351;51.480;5.706;2023-02-15T12:07:02;18.90;95.60
42715;DHT22;28351;51.480;5.706;2023-02-15T12:12:32;20.10;93.90
42715;DHT22;28351;51.480;5.706;2023-02-15T12:15:00;20.80;93.20
42715;DHT22;28351;51.480;5.706;2023-02-15T12:17:50;20.70;92.90
42715;DHT22;28351;51.480;5.706;2023-02-15T12:22:46;20.90;92.40
42715;DHT22;28351;51.480;5.706;2023-02-15T12:25:43;22.20;91.80
42715;DHT22;28351;51.480;5.706;2023-02-15T12:28:42;23.20;90.60
42715;DHT22;28351;51.480;5.706;2023-02-15T12:31:21;22.20;91.00
42715;DHT22;28351;51.480;5.706;2023-02-15T12:33:51;22.20;90.80
42715;DHT22;28351;51.480;5.706;2023-02-15T12:36:29;22.20;90.60
42715;DHT22;28351;51.480;5.706;2023-02-15T12:41:46;22.10;90.30
42715;DHT22;28351;51.480;5.706;2023-02-15T12:44:20;21.10;90.50
42715;DHT22;28351;51.480;5.706;2023-02-15T12:47:04;20.80;90.60
42715;DHT22;28351;51.480;5.706;2023-02-15T12:49:34;21.10;91.30
42715;DHT22;28351;51.480;5.706;2023-02-15T12:52:04;21.60;90.20
42715;DHT22;28351;51.480;5.706;2023-02-15T12:54:41;21.60;89.20
42715;DHT22;28351;51.480;5.706;2023-02-15T12:57:32;21.50;90.00
42715;DHT22;28351;51.480;5.706;2023-02-15T12:59:59;21.60;89.40
42715;DHT22;28351;51.480;5.706;2023-02-15T13:07:58;20.60;90.60
42715;DHT22;28351;51.480;5.706;2023-02-15T13:10:36;20.90;90.60
42715;DHT22;28351;51.480;5.706;2023-02-15T13:13:10;19.90;91.00
42715;DHT22;28351;51.480;5.706;2023-02-15T13:15:39;19.90;91.60
42715;DHT22;28351;51.480;5.706;2023-02-15T13:18:39;20.10;91.80
42715;DHT22;28351;51.480;5.706;2023-02-15T13:21:19;20.30;91.10
42715;DHT22;28351;51.480;5.706;2023-02-15T13:24:02;20.00;91.50
42715;DHT22;28351;51.480;5.706;2023-02-15T13:26:32;19.70;91.40
42715;DHT22;28351;51.480;5.706;2023-02-15T13:29:16;19.30;92.00
42715;DHT22;28351;51.480;5.706;2023-02-15T13:31:43;19.10;92.70
42715;DHT22;28351;51.480;5.706;2023-02-15T13:34:19;18.80;93.10
42715;DHT22;28351;51.480;5.706;2023-02-15T13:42:48;17.90;92.90
42715;DHT22;28351;51.480;5.706;2023-02-15T13:45:39;17.60;93.60
42715;DHT22;28351;51.480;5.706;2023-02-15T13:51:24;17.30;93.10
42715;DHT22;28351;51.480;5.706;2023-02-15T13:54:18;17.30;94.20
42715;DHT22;28351;51.480;5.706;2023-02-15T14:00:10;18.80;93.00
42715;DHT22;28351;51.480;5.706;2023-02-15T14:11:35;19.40;90.80
42715;DHT22;28351;51.480;5.706;2023-02-15T14:19:41;18.90;92.20
42715;DHT22;28351;51.480;5.706;2023-02-15T14:22:33;18.40;91.80
42715;DHT22;28351;51.480;5.706;2023-02-15T14:28:05;16.30;92.80
42715;DHT22;28351;51.480;5.706;2023-02-15T14:30:37;15.80;93.40
42715;DHT22;28351;51.480;5.706;2023-02-15T14:35:32;15.40;94.50
42715;DHT22;28351;51.480;5.706;2023-02-15T14:43:56;15.10;95.40
42715;DHT22;28351;51.480;5.706;2023-02-15T14:49:05;14.90;95.60
42715;DHT22;28351;51.480;5.706;2023-02-15T14:56:41;14.60;95.60
42715;DHT22;28351;51.480;5.706;2023-02-15T14:59:22;14.70;95.90
42715;DHT22;28351;51.480;5.706;2023-02-15T15:02:17;14.70;96.10
42715;DHT22;28351;51.480;5.706;2023-02-15T15:05:08;14.60;95.50
42715;DHT22;28351;51.480;5.706;2023-02-15T15:07:49;14.40;95.90
42715;DHT22;28351;51.480;5.706;2023-02-15T15:12:54;14.30;96.10
42715;DHT22;28351;51.480;5.706;2023-02-15T15:25:52;13.40;97.40
42715;DHT22;28351;51.480;5.706;2023-02-15T15:37:12;12.90;98.50
42715;DHT22;28351;51.480;5.706;2023-02-15T15:46:05;12.70;99.20
42715;DHT22;28351;51.480;5.706;2023-02-15T15:48:38;12.60;99.40
42715;DHT22;28351;51.480;5.706;2023-02-15T15:51:11;12.40;99.60
42715;DHT22;28351;51.480;5.706;2023-02-15T15:53:45;12.30;99.90
42715;DHT22;28351;51.480;5.706;2023-02-15T15:56:20;12.20;99.90
42715;DHT22;28351;51.480;5.706;2023-02-15T15:58:54;12.20;99.90
42715;DHT22;28351;51.480;5.706;2023-02-15T16:01:30;12.10;99.90
42715;DHT22;28351;51.480;5.706;2023-02-15T16:03:58;12.00;99.90
42715;DHT22;28351;51.480;5.706;2023-02-15T16:06:38;11.90;99.90
42715;DHT22;28351;51.480;5.706;2023-02-15T16:09:19;11.80;99.90
42715;DHT22;28351;51.480;5.706;2023-02-15T16:11:54;11.70;99.90
42715;DHT22;28351;51.480;5.706;2023-02-15T16:17:00;11.50;99.90
42715;DHT22;28351;51.480;5.706;2023-02-15T16:19:29;11.50;99.90
42715;DHT22;28351;51.480;5.706;2023-02-15T16:21:58;11.40;99.90
42715;DHT22;28351;51.480;5.706;2023-02-15T16:24:46;11.30;99.90
42715;DHT22;28351;51.480;5.706;2023-02-15T16:30:08;11.30;99.90
42715;DHT22;28351;51.480;5.706;2023-02-15T16:32:36;11.20;99.90
42715;DHT22;28351;51.480;5.706;2023-02-15T16:35:03;11.10;99.90
42715;DHT22;28351;51.480;5.706;2023-02-15T16:37:33;11.00;99.90
42715;DHT22;28351;51.480;5.706;2023-02-15T16:39:59;10.90;99.90
42715;DHT22;28351;51.480;5.706;2023-02-15T16:42:25;10.70;99.90
42715;DHT22;28351;51.480;5.706;2023-02-15T16:47:31;10.60;99.90
42715;DHT22;28351;51.480;5.706;2023-02-15T16:50:00;10.60;99.90
42715;DHT22;28351;51.480;5.706;2023-02-15T16:52:28;10.50;99.90
42715;DHT22;28351;51.480;5.706;2023-02-15T16:54:59;10.50;99.90
42715;DHT22;28351;51.480;5.706;2023-02-15T16:57:34;10.40;99.90
42715;DHT22;28351;51.480;5.706;2023-02-15T17:00:20;10.30;99.90
42715;DHT22;28351;51.480;5.706;2023-02-15T17:02:59;10.20;99.90
42715;DHT22;28351;51.480;5.706;2023-02-15T17:05:33;10.10;99.90
42715;DHT22;28351;51.480;5.706;2023-02-15T17:08:13;10.00;99.90
42715;DHT22;28351;51.480;5.706;2023-02-15T17:10:42;10.00;99.90
42715;DHT22;28351;51.480;5.706;2023-02-15T17:13:11;9.90;99.90
42715;DHT22;28351;51.480;5.706;2023-02-15T17:15:43;9.80;99.90
42715;DHT22;28351;51.480;5.706;2023-02-15T17:18:16;9.70;99.90
42715;DHT22;28351;51.480;5.706;2023-02-15T17:20:43;9.60;99.90
42715;DHT22;28351;51.480;5.706;2023-02-15T17:25:54;9.50;99.90
42715;DHT22;28351;51.480;5.706;2023-02-15T17:28:23;9.50;99.90
42715;DHT22;28351;51.480;5.706;2023-02-15T17:30:51;9.40;99.90
42715;DHT22;28351;51.480;5.706;2023-02-15T17:36:19;9.30;99.90
42715;DHT22;28351;51.480;5.706;2023-02-15T17:41:26;9.20;99.90
42715;DHT22;28351;51.480;5.706;2023-02-15T17:43:52;9.10;99.90
42715;DHT22;28351;51.480;5.706;2023-02-15T17:46:18;9.00;99.90
42715;DHT22;28351;51.480;5.706;2023-02-15T17:48:52;9.00;99.90
42715;DHT22;28351;51.480;5.706;2023-02-15T17:51:19;8.80;99.90
42715;DHT22;28351;51.480;5.706;2023-02-15T17:53:46;8.80;99.90
42715;DHT22;28351;51.480;5.706;2023-02-15T17:56:33;8.80;99.90
42715;DHT22;28351;51.480;5.706;2023-02-15T17:58:59;8.70;99.90
42715;DHT22;28351;51.480;5.706;2023-02-15T18:01:25;8.60;99.90
42715;DHT22;28351;51.480;5.706;2023-02-15T18:04:14;8.60;99.90
42715;DHT22;28351;51.480;5.706;2023-02-15T18:06:59;8.60;99.90
42715;DHT22;28351;51.480;5.706;2023-02-15T18:09:43;8.50;99.90
42715;DHT22;28351;51.480;5.706;2023-02-15T18:14:56;8.30;99.90
42715;DHT22;28351;51.480;5.706;2023-02-15T18:17:27;8.20;99.90
42715;DHT22;28351;51.480;5.706;2023-02-15T18:19:54;8.30;99.90
42715;DHT22;28351;51.480;5.706;2023-02-15T18:22:20;8.20;99.90
42715;DHT22;28351;51.480;5.706;2023-02-15T18:24:47;8.20;99.90
42715;DHT22;28351;51.480;5.706;2023-02-15T18:27:13;8.10;99.90
42715;DHT22;28351;51.480;5.706;2023-02-15T18:29:39;8.10;99.90
42715;DHT22;28351;51.480;5.706;2023-02-15T18:32:08;8.10;99.90
42715;DHT22;28351;51.480;5.706;2023-02-15T18:34:39;8.00;99.90
42715;DHT22;28351;51.480;5.706;2023-02-15T18:37:11;8.00;99.90
42715;DHT22;28351;51.480;5.706;2023-02-15T18:39:46;8.00;99.90
42715;DHT22;28351;51.480;5.706;2023-02-15T18:42:28;7.90;99.90
42715;DHT22;28351;51.480;5.706;2023-02-15T18:45:19;7.80;99.90
42715;DHT22;28351;51.480;5.706;2023-02-15T18:47:46;7.80;99.90
42715;DHT22;28351;51.480;5.706;2023-02-15T18:50:17;7.70;99.90
42715;DHT22;28351;51.480;5.706;2023-02-15T18:52:45;7.60;99.90
42715;DHT22;28351;51.480;5.706;2023-02-15T18:55:16;7.60;99.90
42715;DHT22;28351;51.480;5.706;2023-02-15T18:57:42;7.60;99.90
42715;DHT22;28351;51.480;5.706;2023-02-15T19:00:23;7.60;99.90
42715;DHT22;28351;51.480;5.706;2023-02-15T19:02:57;7.50;99.90
42715;DHT22;28351;51.480;5.706;2023-02-15T19:05:24;7.50;99.90
42715;DHT22;28351;51.480;5.706;2023-02-15T19:07:52;7.40;99.90
42715;DHT22;28351;51.480;5.706;2023-02-15T19:10:20;7.30;99.90
42715;DHT22;28351;51.480;5.706;2023-02-15T19:12:47;7.20;99.90
42715;DHT22;28351;51.480;5.706;2023-02-15T19:15:18;7.20;99.90
42715;DHT22;28351;51.480;5.706;2023-02-15T19:17:44;7.10;99.90
42715;DHT22;28351;51.480;5.706;2023-02-15T19:20:34;7.10;99.90
42715;DHT22;28351;51.480;5.706;2023-02-15T19:23:01;7.00;99.90
42715;DHT22;28351;51.480;5.706;2023-02-15T19:25:29;6.90;99.90
42715;DHT22;28351;51.480;5.706;2023-02-15T19:27:56;6.90;99.90
42715;DHT22;28351;51.480;5.706;2023-02-15T19:30:25;6.80;99.90
42715;DHT22;28351;51.480;5.706;2023-02-15T19:32:52;6.90;99.90